sensor_id;sensor_type;location;lat;lon;timestamp;P1;durP1;ratioP1;P2;durP2;ratioP2
32613;SDS011;19031;51.400;6.770;2022-10-22T00:02:24;3.67;;;2.08;;
32613;SDS011;19031;51.400;6.770;2022-10-22T00:04:52;7.82;;;1.98;;
32613;SDS011;19031;51.400;6.770;2022-10-22T00:07:20;8.32;;;1.77;;
32613;SDS011;19031;51.400;6.770;2022-10-22T00:09:46;10.07;;;2.38;;
32613;SDS011;19031;51.400;6.770;2022-10-22T00:12:13;5.95;;;2.25;;
32613;SDS011;19031;51.400;6.770;2022-10-22T00:14:39;6.63;;;2.03;;
32613;SDS011;19031;51.400;6.770;2022-10-22T00:17:05;7.65;;;2.22;;
32613;SDS011;19031;51.400;6.770;2022-10-22T00:19:31;4.40;;;2.38;;
32613;SDS011;19031;51.400;6.770;2022-10-22T00:21:56;14.65;;;2.28;;
32613;SDS011;19031;51.400;6.770;2022-10-22T00:24:22;3.08;;;1.80;;
32613;SDS011;19031;51.400;6.770;2022-10-22T00:26:49;3.10;;;1.73;;
32613;SDS011;19031;51.400;6.770;2022-10-22T00:29:15;4.30;;;1.85;;
32613;SDS011;19031;51.400;6.770;2022-10-22T00:31:44;11.18;;;2.33;;
32613;SDS011;19031;51.400;6.770;2022-10-22T00:34:14;9.30;;;1.90;;
32613;SDS011;19031;51.400;6.770;2022-10-22T00:36:41;3.65;;;1.75;;
32613;SDS011;19031;51.400;6.770;2022-10-22T00:39:06;4.78;;;2.05;;
32613;SDS011;19031;51.400;6.770;2022-10-22T00:41:32;6.72;;;1.88;;
32613;SDS011;19031;51.400;6.770;2022-10-22T00:43:59;2.35;;;1.55;;
32613;SDS011;19031;51.400;6.770;2022-10-22T00:46:29;4.15;;;1.60;;
32613;SDS011;19031;51.400;6.770;2022-10-22T00:48:55;6.03;;;2.03;;
32613;SDS011;19031;51.400;6.770;2022-10-22T00:51:25;2.72;;;2.05;;
32613;SDS011;19031;51.400;6.770;2022-10-22T00:53:54;8.07;;;2.42;;
32613;SDS011;19031;51.400;6.770;2022-10-22T00:56:24;6.35;;;2.25;;
32613;SDS011;19031;51.400;6.770;2022-10-22T00:58:54;4.30;;;2.13;;
32613;SDS011;19031;51.400;6.770;2022-10-22T01:01:24;5.60;;;1.88;;
32613;SDS011;19031;51.400;6.770;2022-10-22T01:03:52;3.17;;;1.88;;
32613;SDS011;19031;51.400;6.770;2022-10-22T01:06:28;3.10;;;1.92;;
32613;SDS011;19031;51.400;6.770;2022-10-22T01:31:24;3.22;;;2.15;;
32613;SDS011;19031;51.400;6.770;2022-10-22T01:33:55;11.38;;;2.80;;
32613;SDS011;19031;51.400;6.770;2022-10-22T01:36:23;7.05;;;2.70;;
32613;SDS011;19031;51.400;6.770;2022-10-22T01:38:49;8.50;;;2.08;;
32613;SDS011;19031;51.400;6.770;2022-10-22T01:41:16;3.50;;;1.90;;
32613;SDS011;19031;51.400;6.770;2022-10-22T01:43:42;9.02;;;2.47;;
32613;SDS011;19031;51.400;6.770;2022-10-22T01:46:08;4.10;;;2.58;;
32613;SDS011;19031;51.400;6.770;2022-10-22T01:51:14;8.25;;;2.75;;
32613;SDS011;19031;51.400;6.770;2022-10-22T02:07:42;4.68;;;2.67;;
32613;SDS011;19031;51.400;6.770;2022-10-22T02:10:12;7.15;;;3.13;;
32613;SDS011;19031;51.400;6.770;2022-10-22T02:12:39;8.23;;;3.08;;
32613;SDS011;19031;51.400;6.770;2022-10-22T02:15:07;5.80;;;2.63;;
32613;SDS011;19031;51.400;6.770;2022-10-22T02:17:34;3.45;;;2.38;;
32613;SDS011;19031;51.400;6.770;2022-10-22T02:20:04;8.48;;;2.40;;
32613;SDS011;19031;51.400;6.770;2022-10-22T02:22:35;5.57;;;2.85;;
32613;SDS011;19031;51.400;6.770;2022-10-22T02:25:01;9.38;;;3.17;;
32613;SDS011;19031;51.400;6.770;2022-10-22T02:30:07;7.82;;;3.28;;
32613;SDS011;19031;51.400;6.770;2022-10-22T02:32:38;7.75;;;3.03;;
32613;SDS011;19031;51.400;6.770;2022-10-22T02:35:16;8.73;;;2.72;;
32613;SDS011;19031;51.400;6.770;2022-10-22T02:37:44;6.40;;;2.70;;
32613;SDS011;19031;51.400;6.770;2022-10-22T02:40:10;10.93;;;2.95;;
32613;SDS011;19031;51.400;6.770;2022-10-22T02:42:36;7.70;;;2.83;;
32613;SDS011;19031;51.400;6.770;2022-10-22T02:45:04;3.20;;;2.45;;
32613;SDS011;19031;51.400;6.770;2022-10-22T02:47:30;5.30;;;2.90;;
32613;SDS011;19031;51.400;6.770;2022-10-22T02:49:56;4.28;;;2.80;;
32613;SDS011;19031;51.400;6.770;2022-10-22T02:52:22;7.78;;;2.47;;
32613;SDS011;19031;51.400;6.770;2022-10-22T02:54:47;6.07;;;2.20;;
32613;SDS011;19031;51.400;6.770;2022-10-22T02:57:13;11.20;;;2.85;;
32613;SDS011;19031;51.400;6.770;2022-10-22T02:59:38;5.45;;;2.65;;
32613;SDS011;19031;51.400;6.770;2022-10-22T03:02:04;4.88;;;2.70;;
32613;SDS011;19031;51.400;6.770;2022-10-22T03:04:29;9.77;;;2.83;;
32613;SDS011;19031;51.400;6.770;2022-10-22T03:06:55;3.97;;;2.35;;
32613;SDS011;19031;51.400;6.770;2022-10-22T03:09:20;4.25;;;2.42;;
32613;SDS011;19031;51.400;6.770;2022-10-22T03:11:46;17.20;;;3.95;;
32613;SDS011;19031;51.400;6.770;2022-10-22T03:14:12;3.38;;;2.40;;
32613;SDS011;19031;51.400;6.770;2022-10-22T03:16:37;6.60;;;2.55;;
32613;SDS011;19031;51.400;6.770;2022-10-22T03:19:03;5.95;;;2.97;;
32613;SDS011;19031;51.400;6.770;2022-10-22T03:21:39;7.43;;;3.28;;
32613;SDS011;19031;51.400;6.770;2022-10-22T03:24:11;11.25;;;2.78;;
32613;SDS011;19031;51.400;6.770;2022-10-22T03:26:41;11.25;;;3.20;;
32613;SDS011;19031;51.400;6.770;2022-10-22T03:29:10;7.97;;;3.70;;
32613;SDS011;19031;51.400;6.770;2022-10-22T03:31:38;5.65;;;2.53;;
32613;SDS011;19031;51.400;6.770;2022-10-22T03:34:04;7.53;;;3.17;;
32613;SDS011;19031;51.400;6.770;2022-10-22T03:36:30;9.25;;;2.78;;
32613;SDS011;19031;51.400;6.770;2022-10-22T03:38:57;8.07;;;2.95;;
32613;SDS011;19031;51.400;6.770;2022-10-22T03:41:23;5.93;;;3.17;;
32613;SDS011;19031;51.400;6.770;2022-10-22T03:43:49;8.75;;;2.70;;
32613;SDS011;19031;51.400;6.770;2022-10-22T03:46:17;11.70;;;2.80;;
32613;SDS011;19031;51.400;6.770;2022-10-22T03:48:43;7.55;;;3.47;;
32613;SDS011;19031;51.400;6.770;2022-10-22T03:51:08;7.70;;;2.75;;
32613;SDS011;19031;51.400;6.770;2022-10-22T03:53:34;6.75;;;2.85;;
32613;SDS011;19031;51.400;6.770;2022-10-22T03:56:00;6.15;;;3.00;;
32613;SDS011;19031;51.400;6.770;2022-10-22T03:58:26;9.75;;;3.58;;
32613;SDS011;19031;51.400;6.770;2022-10-22T04:00:51;10.07;;;3.17;;
32613;SDS011;19031;51.400;6.770;2022-10-22T04:03:17;5.45;;;3.22;;
32613;SDS011;19031;51.400;6.770;2022-10-22T04:05:42;11.95;;;3.47;;
32613;SDS011;19031;51.400;6.770;2022-10-22T04:08:08;13.93;;;3.20;;
32613;SDS011;19031;51.400;6.770;2022-10-22T04:10:33;4.72;;;2.72;;
32613;SDS011;19031;51.400;6.770;2022-10-22T04:12:59;9.73;;;3.22;;
32613;SDS011;19031;51.400;6.770;2022-10-22T04:15:25;8.50;;;3.38;;
32613;SDS011;19031;51.400;6.770;2022-10-22T04:17:52;7.47;;;3.28;;
32613;SDS011;19031;51.400;6.770;2022-10-22T04:20:18;13.02;;;3.40;;
32613;SDS011;19031;51.400;6.770;2022-10-22T04:22:43;8.93;;;3.30;;
32613;SDS011;19031;51.400;6.770;2022-10-22T04:25:09;7.97;;;3.47;;
32613;SDS011;19031;51.400;6.770;2022-10-22T04:27:34;7.63;;;3.03;;
32613;SDS011;19031;51.400;6.770;2022-10-22T04:30:00;5.88;;;2.70;;
32613;SDS011;19031;51.400;6.770;2022-10-22T04:32:27;9.07;;;3.45;;
32613;SDS011;19031;51.400;6.770;2022-10-22T04:34:52;6.40;;;2.95;;
32613;SDS011;19031;51.400;6.770;2022-10-22T04:37:18;6.43;;;3.13;;
32613;SDS011;19031;51.400;6.770;2022-10-22T04:39:44;6.72;;;3.45;;
32613;SDS011;19031;51.400;6.770;2022-10-22T04:42:10;5.95;;;3.15;;
32613;SDS011;19031;51.400;6.770;2022-10-22T04:44:36;12.60;;;3.40;;
32613;SDS011;19031;51.400;6.770;2022-10-22T04:47:02;7.90;;;3.38;;
32613;SDS011;19031;51.400;6.770;2022-10-22T04:49:27;9.80;;;3.20;;
32613;SDS011;19031;51.400;6.770;2022-10-22T04:51:53;4.55;;;3.22;;
32613;SDS011;19031;51.400;6.770;2022-10-22T04:54:18;8.98;;;3.42;;
32613;SDS011;19031;51.400;6.770;2022-10-22T04:56:44;5.38;;;3.00;;
32613;SDS011;19031;51.400;6.770;2022-10-22T04:59:10;6.85;;;3.47;;
32613;SDS011;19031;51.400;6.770;2022-10-22T05:01:39;11.18;;;3.55;;
32613;SDS011;19031;51.400;6.770;2022-10-22T05:04:07;12.65;;;3.78;;
32613;SDS011;19031;51.400;6.770;2022-10-22T05:06:35;14.95;;;3.63;;
32613;SDS011;19031;51.400;6.770;2022-10-22T05:09:03;8.43;;;3.92;;
32613;SDS011;19031;51.400;6.770;2022-10-22T05:11:32;8.40;;;3.60;;
32613;SDS011;19031;51.400;6.770;2022-10-22T05:13:59;11.68;;;3.72;;
32613;SDS011;19031;51.400;6.770;2022-10-22T05:16:27;7.18;;;3.30;;
32613;SDS011;19031;51.400;6.770;2022-10-22T05:18:53;7.07;;;3.35;;
32613;SDS011;19031;51.400;6.770;2022-10-22T05:21:19;7.13;;;3.92;;
32613;SDS011;19031;51.400;6.770;2022-10-22T05:23:46;10.27;;;3.38;;
32613;SDS011;19031;51.400;6.770;2022-10-22T05:26:14;8.30;;;4.75;;
32613;SDS011;19031;51.400;6.770;2022-10-22T05:28:42;8.82;;;3.90;;
32613;SDS011;19031;51.400;6.770;2022-10-22T05:31:09;8.02;;;3.92;;
32613;SDS011;19031;51.400;6.770;2022-10-22T05:33:36;14.82;;;4.32;;
32613;SDS011;19031;51.400;6.770;2022-10-22T05:36:02;8.48;;;4.32;;
32613;SDS011;19031;51.400;6.770;2022-10-22T05:38:30;11.30;;;4.35;;
32613;SDS011;19031;51.400;6.770;2022-10-22T05:43:30;9.48;;;4.32;;
32613;SDS011;19031;51.400;6.770;2022-10-22T05:45:56;10.48;;;5.22;;
32613;SDS011;19031;51.400;6.770;2022-10-22T05:48:28;14.07;;;4.65;;
32613;SDS011;19031;51.400;6.770;2022-10-22T05:50:54;12.18;;;5.70;;
32613;SDS011;19031;51.400;6.770;2022-10-22T05:53:20;9.77;;;4.80;;
32613;SDS011;19031;51.400;6.770;2022-10-22T05:55:46;9.50;;;4.38;;
32613;SDS011;19031;51.400;6.770;2022-10-22T05:58:11;8.85;;;4.57;;
32613;SDS011;19031;51.400;6.770;2022-10-22T06:00:37;10.15;;;5.18;;
32613;SDS011;19031;51.400;6.770;2022-10-22T06:03:03;13.02;;;6.25;;
32613;SDS011;19031;51.400;6.770;2022-10-22T06:05:29;16.48;;;7.82;;
32613;SDS011;19031;51.400;6.770;2022-10-22T06:07:55;10.73;;;6.80;;
32613;SDS011;19031;51.400;6.770;2022-10-22T06:10:21;9.23;;;5.80;;
32613;SDS011;19031;51.400;6.770;2022-10-22T06:12:48;14.50;;;5.95;;
32613;SDS011;19031;51.400;6.770;2022-10-22T06:15:14;15.75;;;6.03;;
32613;SDS011;19031;51.400;6.770;2022-10-22T06:17:45;12.77;;;6.07;;
32613;SDS011;19031;51.400;6.770;2022-10-22T06:20:11;10.40;;;6.53;;
32613;SDS011;19031;51.400;6.770;2022-10-22T06:22:37;16.10;;;7.20;;
32613;SDS011;19031;51.400;6.770;2022-10-22T06:25:04;13.88;;;6.75;;
32613;SDS011;19031;51.400;6.770;2022-10-22T06:27:33;20.85;;;6.60;;
32613;SDS011;19031;51.400;6.770;2022-10-22T06:29:59;13.60;;;7.38;;
32613;SDS011;19031;51.400;6.770;2022-10-22T06:32:24;16.38;;;6.90;;
32613;SDS011;19031;51.400;6.770;2022-10-22T06:34:50;12.10;;;6.95;;
32613;SDS011;19031;51.400;6.770;2022-10-22T06:37:16;10.75;;;5.93;;
32613;SDS011;19031;51.400;6.770;2022-10-22T06:39:41;25.58;;;9.55;;
32613;SDS011;19031;51.400;6.770;2022-10-22T06:42:07;21.75;;;10.05;;
32613;SDS011;19031;51.400;6.770;2022-10-22T06:44:32;26.25;;;11.18;;
32613;SDS011;19031;51.400;6.770;2022-10-22T06:46:58;29.83;;;10.35;;
32613;SDS011;19031;51.400;6.770;2022-10-22T06:49:24;15.65;;;8.88;;
32613;SDS011;19031;51.400;6.770;2022-10-22T06:51:50;23.70;;;10.43;;
32613;SDS011;19031;51.400;6.770;2022-10-22T06:54:17;20.40;;;8.27;;
32613;SDS011;19031;51.400;6.770;2022-10-22T06:56:43;41.47;;;18.10;;
32613;SDS011;19031;51.400;6.770;2022-10-22T06:59:09;42.28;;;17.67;;
32613;SDS011;19031;51.400;6.770;2022-10-22T07:01:34;28.65;;;12.65;;
32613;SDS011;19031;51.400;6.770;2022-10-22T07:04:01;18.88;;;9.15;;
32613;SDS011;19031;51.400;6.770;2022-10-22T07:06:27;20.02;;;7.55;;
32613;SDS011;19031;51.400;6.770;2022-10-22T07:08:57;13.68;;;6.32;;
32613;SDS011;19031;51.400;6.770;2022-10-22T07:11:30;17.13;;;7.20;;
32613;SDS011;19031;51.400;6.770;2022-10-22T07:14:02;18.02;;;6.60;;
32613;SDS011;19031;51.400;6.770;2022-10-22T07:16:31;14.80;;;6.15;;
32613;SDS011;19031;51.400;6.770;2022-10-22T07:18:57;21.08;;;10.70;;
32613;SDS011;19031;51.400;6.770;2022-10-22T07:21:23;19.75;;;10.27;;
32613;SDS011;19031;51.400;6.770;2022-10-22T07:23:50;10.40;;;7.35;;
32613;SDS011;19031;51.400;6.770;2022-10-22T07:26:15;21.17;;;6.85;;
32613;SDS011;19031;51.400;6.770;2022-10-22T07:28:42;8.77;;;6.30;;
32613;SDS011;19031;51.400;6.770;2022-10-22T07:31:08;15.73;;;7.50;;
32613;SDS011;19031;51.400;6.770;2022-10-22T07:33:35;12.63;;;7.97;;
32613;SDS011;19031;51.400;6.770;2022-10-22T07:36:02;15.25;;;6.78;;
32613;SDS011;19031;51.400;6.770;2022-10-22T07:38:29;13.90;;;7.10;;
32613;SDS011;19031;51.400;6.770;2022-10-22T07:40:55;10.63;;;5.55;;
32613;SDS011;19031;51.400;6.770;2022-10-22T07:43:21;16.30;;;5.28;;
32613;SDS011;19031;51.400;6.770;2022-10-22T07:45:47;10.82;;;4.47;;
32613;SDS011;19031;51.400;6.770;2022-10-22T07:48:13;10.45;;;4.57;;
32613;SDS011;19031;51.400;6.770;2022-10-22T07:50:38;10.25;;;4.20;;
32613;SDS011;19031;51.400;6.770;2022-10-22T07:53:04;9.38;;;4.00;;
32613;SDS011;19031;51.400;6.770;2022-10-22T07:55:29;5.43;;;3.25;;
32613;SDS011;19031;51.400;6.770;2022-10-22T07:57:55;10.80;;;3.05;;
32613;SDS011;19031;51.400;6.770;2022-10-22T08:00:21;11.00;;;3.17;;
32613;SDS011;19031;51.400;6.770;2022-10-22T08:02:46;7.28;;;2.67;;
32613;SDS011;19031;51.400;6.770;2022-10-22T08:05:12;9.65;;;2.58;;
32613;SDS011;19031;51.400;6.770;2022-10-22T08:07:38;9.90;;;4.30;;
32613;SDS011;19031;51.400;6.770;2022-10-22T08:10:04;12.32;;;4.32;;
32613;SDS011;19031;51.400;6.770;2022-10-22T08:12:31;12.65;;;3.55;;
32613;SDS011;19031;51.400;6.770;2022-10-22T08:14:56;8.82;;;4.00;;
32613;SDS011;19031;51.400;6.770;2022-10-22T08:17:22;10.48;;;3.55;;
32613;SDS011;19031;51.400;6.770;2022-10-22T08:19:48;12.70;;;2.92;;
32613;SDS011;19031;51.400;6.770;2022-10-22T08:22:13;11.30;;;3.47;;
32613;SDS011;19031;51.400;6.770;2022-10-22T08:24:39;7.97;;;3.17;;
32613;SDS011;19031;51.400;6.770;2022-10-22T08:27:05;5.78;;;2.42;;
32613;SDS011;19031;51.400;6.770;2022-10-22T08:29:30;10.05;;;3.83;;
32613;SDS011;19031;51.400;6.770;2022-10-22T08:31:56;9.80;;;3.22;;
32613;SDS011;19031;51.400;6.770;2022-10-22T08:34:21;5.60;;;2.22;;
32613;SDS011;19031;51.400;6.770;2022-10-22T08:36:47;5.30;;;2.10;;
32613;SDS011;19031;51.400;6.770;2022-10-22T08:39:13;4.28;;;1.48;;
32613;SDS011;19031;51.400;6.770;2022-10-22T08:42:26;11.07;;;2.45;;
32613;SDS011;19031;51.400;6.770;2022-10-22T08:50:14;6.63;;;2.42;;
32613;SDS011;19031;51.400;6.770;2022-10-22T08:52:47;5.90;;;1.83;;
32613;SDS011;19031;51.400;6.770;2022-10-22T08:55:16;6.30;;;2.03;;
32613;SDS011;19031;51.400;6.770;2022-10-22T08:57:54;7.47;;;1.63;;
32613;SDS011;19031;51.400;6.770;2022-10-22T09:00:32;13.15;;;2.30;;
32613;SDS011;19031;51.400;6.770;2022-10-22T09:06:00;8.30;;;1.88;;
32613;SDS011;19031;51.400;6.770;2022-10-22T09:08:36;3.80;;;1.52;;
32613;SDS011;19031;51.400;6.770;2022-10-22T09:13:40;5.15;;;1.00;;
32613;SDS011;19031;51.400;6.770;2022-10-22T09:16:13;3.67;;;1.25;;
32613;SDS011;19031;51.400;6.770;2022-10-22T09:26:17;8.25;;;2.10;;
32613;SDS011;19031;51.400;6.770;2022-10-22T09:28:47;10.32;;;1.05;;
32613;SDS011;19031;51.400;6.770;2022-10-22T09:31:14;3.22;;;1.00;;
32613;SDS011;19031;51.400;6.770;2022-10-22T09:33:40;4.18;;;0.90;;
32613;SDS011;19031;51.400;6.770;2022-10-22T09:36:07;2.65;;;0.63;;
32613;SDS011;19031;51.400;6.770;2022-10-22T09:38:43;3.88;;;0.80;;
32613;SDS011;19031;51.400;6.770;2022-10-22T09:41:15;2.55;;;0.98;;
32613;SDS011;19031;51.400;6.770;2022-10-22T09:43:42;8.45;;;1.10;;
32613;SDS011;19031;51.400;6.770;2022-10-22T09:46:15;2.13;;;0.60;;
32613;SDS011;19031;51.400;6.770;2022-10-22T09:49:05;4.72;;;1.02;;
32613;SDS011;19031;51.400;6.770;2022-10-22T09:51:39;4.57;;;0.80;;
32613;SDS011;19031;51.400;6.770;2022-10-22T09:54:15;7.38;;;0.75;;
32613;SDS011;19031;51.400;6.770;2022-10-22T09:56:49;4.63;;;0.73;;
32613;SDS011;19031;51.400;6.770;2022-10-22T09:59:18;3.88;;;1.15;;
32613;SDS011;19031;51.400;6.770;2022-10-22T10:01:54;6.38;;;0.70;;
32613;SDS011;19031;51.400;6.770;2022-10-22T10:04:21;6.10;;;0.70;;
32613;SDS011;19031;51.400;6.770;2022-10-22T10:06:51;6.57;;;1.25;;
32613;SDS011;19031;51.400;6.770;2022-10-22T10:09:20;7.63;;;0.88;;
32613;SDS011;19031;51.400;6.770;2022-10-22T10:11:53;3.50;;;0.80;;
32613;SDS011;19031;51.400;6.770;2022-10-22T10:14:36;5.20;;;0.85;;
32613;SDS011;19031;51.400;6.770;2022-10-22T10:17:19;6.13;;;0.75;;
32613;SDS011;19031;51.400;6.770;2022-10-22T10:34:15;3.13;;;0.88;;
32613;SDS011;19031;51.400;6.770;2022-10-22T10:39:38;1.90;;;0.50;;
32613;SDS011;19031;51.400;6.770;2022-10-22T10:42:40;5.55;;;0.70;;
32613;SDS011;19031;51.400;6.770;2022-10-22T10:48:10;3.70;;;0.70;;
32613;SDS011;19031;51.400;6.770;2022-10-22T10:53:23;2.53;;;0.70;;
32613;SDS011;19031;51.400;6.770;2022-10-22T10:55:56;6.32;;;0.50;;
32613;SDS011;19031;51.400;6.770;2022-10-22T10:58:36;5.07;;;0.60;;
32613;SDS011;19031;51.400;6.770;2022-10-22T11:01:26;2.58;;;0.77;;
32613;SDS011;19031;51.400;6.770;2022-10-22T11:06:47;3.47;;;1.00;;
32613;SDS011;19031;51.400;6.770;2022-10-22T11:12:00;3.50;;;0.70;;
32613;SDS011;19031;51.400;6.770;2022-10-22T11:17:10;1.98;;;0.28;;
32613;SDS011;19031;51.400;6.770;2022-10-22T11:22:33;0.98;;;0.40;;
32613;SDS011;19031;51.400;6.770;2022-10-22T11:30:21;3.78;;;0.40;;
32613;SDS011;19031;51.400;6.770;2022-10-22T11:32:56;2.53;;;0.88;;
32613;SDS011;19031;51.400;6.770;2022-10-22T11:35:29;5.20;;;0.73;;
32613;SDS011;19031;51.400;6.770;2022-10-22T11:37:58;4.00;;;0.75;;
32613;SDS011;19031;51.400;6.770;2022-10-22T11:43:09;5.10;;;0.85;;
32613;SDS011;19031;51.400;6.770;2022-10-22T11:45:49;2.78;;;0.57;;
32613;SDS011;19031;51.400;6.770;2022-10-22T11:48:41;4.45;;;0.70;;
32613;SDS011;19031;51.400;6.770;2022-10-22T11:53:57;1.45;;;0.57;;
32613;SDS011;19031;51.400;6.770;2022-10-22T11:56:31;5.35;;;0.98;;
32613;SDS011;19031;51.400;6.770;2022-10-22T11:59:02;3.95;;;0.98;;
32613;SDS011;19031;51.400;6.770;2022-10-22T12:01:39;2.38;;;0.45;;
32613;SDS011;19031;51.400;6.770;2022-10-22T12:04:22;1.75;;;0.50;;
32613;SDS011;19031;51.400;6.770;2022-10-22T12:07:24;12.93;;;1.33;;
32613;SDS011;19031;51.400;6.770;2022-10-22T12:09:58;5.75;;;1.27;;
32613;SDS011;19031;51.400;6.770;2022-10-22T12:12:23;4.18;;;0.90;;
32613;SDS011;19031;51.400;6.770;2022-10-22T12:14:53;4.80;;;0.88;;
32613;SDS011;19031;51.400;6.770;2022-10-22T12:17:21;2.08;;;0.73;;
32613;SDS011;19031;51.400;6.770;2022-10-22T12:19:50;5.78;;;1.40;;
32613;SDS011;19031;51.400;6.770;2022-10-22T12:24:54;0.95;;;0.50;;
32613;SDS011;19031;51.400;6.770;2022-10-22T12:29:55;4.32;;;1.77;;
32613;SDS011;19031;51.400;6.770;2022-10-22T12:32:21;4.70;;;1.50;;
32613;SDS011;19031;51.400;6.770;2022-10-22T12:34:49;2.10;;;0.90;;
32613;SDS011;19031;51.400;6.770;2022-10-22T12:37:16;4.82;;;0.80;;
32613;SDS011;19031;51.400;6.770;2022-10-22T12:39:44;5.00;;;1.00;;
32613;SDS011;19031;51.400;6.770;2022-10-22T12:42:14;3.67;;;0.85;;
32613;SDS011;19031;51.400;6.770;2022-10-22T12:44:42;2.63;;;0.35;;
32613;SDS011;19031;51.400;6.770;2022-10-22T12:47:15;3.72;;;0.60;;
32613;SDS011;19031;51.400;6.770;2022-10-22T12:49:43;2.93;;;0.93;;
32613;SDS011;19031;51.400;6.770;2022-10-22T12:52:13;3.75;;;0.68;;
32613;SDS011;19031;51.400;6.770;2022-10-22T12:54:43;3.63;;;0.65;;
32613;SDS011;19031;51.400;6.770;2022-10-22T12:57:12;1.20;;;0.40;;
32613;SDS011;19031;51.400;6.770;2022-10-22T12:59:40;4.25;;;0.60;;
32613;SDS011;19031;51.400;6.770;2022-10-22T13:02:16;3.35;;;0.30;;
32613;SDS011;19031;51.400;6.770;2022-10-22T13:07:45;6.18;;;0.60;;
32613;SDS011;19031;51.400;6.770;2022-10-22T13:10:32;4.63;;;0.60;;
32613;SDS011;19031;51.400;6.770;2022-10-22T13:12:59;2.70;;;0.73;;
32613;SDS011;19031;51.400;6.770;2022-10-22T13:18:13;3.72;;;0.70;;
32613;SDS011;19031;51.400;6.770;2022-10-22T13:23:22;4.55;;;1.02;;
32613;SDS011;19031;51.400;6.770;2022-10-22T13:26:03;4.95;;;0.73;;
32613;SDS011;19031;51.400;6.770;2022-10-22T13:28:39;3.60;;;1.08;;
32613;SDS011;19031;51.400;6.770;2022-10-22T13:31:09;3.00;;;0.75;;
32613;SDS011;19031;51.400;6.770;2022-10-22T13:33:41;2.53;;;0.50;;
32613;SDS011;19031;51.400;6.770;2022-10-22T13:36:11;1.50;;;0.40;;
32613;SDS011;19031;51.400;6.770;2022-10-22T13:38:38;3.03;;;0.50;;
32613;SDS011;19031;51.400;6.770;2022-10-22T13:41:15;6.85;;;0.60;;
32613;SDS011;19031;51.400;6.770;2022-10-22T13:43:47;1.13;;;0.25;;
32613;SDS011;19031;51.400;6.770;2022-10-22T13:46:12;1.42;;;0.43;;
32613;SDS011;19031;51.400;6.770;2022-10-22T13:48:38;10.45;;;5.20;;
32613;SDS011;19031;51.400;6.770;2022-10-22T13:51:17;5.32;;;1.45;;
32613;SDS011;19031;51.400;6.770;2022-10-22T13:53:45;5.47;;;0.80;;
32613;SDS011;19031;51.400;6.770;2022-10-22T13:56:13;1.58;;;0.43;;
32613;SDS011;19031;51.400;6.770;2022-10-22T13:58:39;1.30;;;0.28;;
32613;SDS011;19031;51.400;6.770;2022-10-22T14:01:08;3.30;;;0.40;;
32613;SDS011;19031;51.400;6.770;2022-10-22T14:03:56;1.58;;;0.40;;
32613;SDS011;19031;51.400;6.770;2022-10-22T14:06:24;4.60;;;0.50;;
32613;SDS011;19031;51.400;6.770;2022-10-22T14:08:58;2.70;;;0.68;;
32613;SDS011;19031;51.400;6.770;2022-10-22T14:11:26;4.05;;;0.50;;
32613;SDS011;19031;51.400;6.770;2022-10-22T14:13:52;3.67;;;0.70;;
32613;SDS011;19031;51.400;6.770;2022-10-22T14:16:19;1.30;;;0.50;;
32613;SDS011;19031;51.400;6.770;2022-10-22T14:18:48;1.90;;;0.52;;
32613;SDS011;19031;51.400;6.770;2022-10-22T14:21:15;1.70;;;0.50;;
32613;SDS011;19031;51.400;6.770;2022-10-22T14:23:42;0.70;;;0.38;;
32613;SDS011;19031;51.400;6.770;2022-10-22T14:26:27;0.70;;;0.35;;
32613;SDS011;19031;51.400;6.770;2022-10-22T14:28:56;12.50;;;1.20;;
32613;SDS011;19031;51.400;6.770;2022-10-22T14:31:23;3.22;;;0.70;;
32613;SDS011;19031;51.400;6.770;2022-10-22T14:33:48;5.68;;;0.82;;
32613;SDS011;19031;51.400;6.770;2022-10-22T14:36:15;3.55;;;0.70;;
32613;SDS011;19031;51.400;6.770;2022-10-22T14:38:44;1.58;;;0.63;;
32613;SDS011;19031;51.400;6.770;2022-10-22T14:43:49;4.38;;;0.60;;
32613;SDS011;19031;51.400;6.770;2022-10-22T14:46:16;4.97;;;0.55;;
32613;SDS011;19031;51.400;6.770;2022-10-22T14:48:43;2.58;;;0.75;;
32613;SDS011;19031;51.400;6.770;2022-10-22T14:51:10;2.58;;;1.00;;
32613;SDS011;19031;51.400;6.770;2022-10-22T14:53:38;3.63;;;1.00;;
32613;SDS011;19031;51.400;6.770;2022-10-22T14:56:04;2.90;;;0.90;;
32613;SDS011;19031;51.400;6.770;2022-10-22T14:58:29;5.93;;;0.88;;
32613;SDS011;19031;51.400;6.770;2022-10-22T15:00:55;4.68;;;1.10;;
32613;SDS011;19031;51.400;6.770;2022-10-22T15:03:21;4.90;;;0.63;;
32613;SDS011;19031;51.400;6.770;2022-10-22T15:05:49;3.83;;;0.90;;
32613;SDS011;19031;51.400;6.770;2022-10-22T15:08:17;4.00;;;0.70;;
32613;SDS011;19031;51.400;6.770;2022-10-22T15:10:44;8.68;;;0.93;;
32613;SDS011;19031;51.400;6.770;2022-10-22T15:13:10;2.33;;;0.77;;
32613;SDS011;19031;51.400;6.770;2022-10-22T15:15:38;2.00;;;0.35;;
32613;SDS011;19031;51.400;6.770;2022-10-22T15:18:04;5.50;;;0.60;;
32613;SDS011;19031;51.400;6.770;2022-10-22T15:20:30;3.55;;;0.47;;
32613;SDS011;19031;51.400;6.770;2022-10-22T15:22:55;5.78;;;0.82;;
32613;SDS011;19031;51.400;6.770;2022-10-22T15:25:21;1.40;;;0.40;;
32613;SDS011;19031;51.400;6.770;2022-10-22T15:27:47;1.40;;;0.35;;
32613;SDS011;19031;51.400;6.770;2022-10-22T15:30:13;1.77;;;0.52;;
32613;SDS011;19031;51.400;6.770;2022-10-22T15:32:38;6.25;;;0.70;;
32613;SDS011;19031;51.400;6.770;2022-10-22T15:35:04;4.65;;;0.57;;
32613;SDS011;19031;51.400;6.770;2022-10-22T15:37:31;1.92;;;0.80;;
32613;SDS011;19031;51.400;6.770;2022-10-22T15:39:57;1.55;;;0.50;;
32613;SDS011;19031;51.400;6.770;2022-10-22T15:42:24;2.40;;;0.40;;
32613;SDS011;19031;51.400;6.770;2022-10-22T15:44:52;2.22;;;0.38;;
32613;SDS011;19031;51.400;6.770;2022-10-22T15:47:22;3.63;;;0.60;;
32613;SDS011;19031;51.400;6.770;2022-10-22T15:49:52;8.13;;;1.30;;
32613;SDS011;19031;51.400;6.770;2022-10-22T15:52:18;4.72;;;1.35;;
32613;SDS011;19031;51.400;6.770;2022-10-22T15:54:45;3.42;;;1.40;;
32613;SDS011;19031;51.400;6.770;2022-10-22T15:57:11;4.45;;;1.70;;
32613;SDS011;19031;51.400;6.770;2022-10-22T15:59:37;6.35;;;2.25;;
32613;SDS011;19031;51.400;6.770;2022-10-22T16:02:02;3.63;;;1.90;;
32613;SDS011;19031;51.400;6.770;2022-10-22T16:04:28;4.40;;;1.58;;
32613;SDS011;19031;51.400;6.770;2022-10-22T16:06:54;11.75;;;1.90;;
32613;SDS011;19031;51.400;6.770;2022-10-22T16:09:22;7.45;;;1.75;;
32613;SDS011;19031;51.400;6.770;2022-10-22T16:11:50;3.38;;;1.45;;
32613;SDS011;19031;51.400;6.770;2022-10-22T16:14:17;12.50;;;3.17;;
32613;SDS011;19031;51.400;6.770;2022-10-22T16:16:45;4.65;;;1.45;;
32613;SDS011;19031;51.400;6.770;2022-10-22T16:19:13;4.22;;;1.38;;
32613;SDS011;19031;51.400;6.770;2022-10-22T16:21:40;3.60;;;1.52;;
32613;SDS011;19031;51.400;6.770;2022-10-22T16:24:09;5.60;;;1.80;;
32613;SDS011;19031;51.400;6.770;2022-10-22T16:26:35;3.45;;;1.50;;
32613;SDS011;19031;51.400;6.770;2022-10-22T16:29:03;5.05;;;2.55;;
32613;SDS011;19031;51.400;6.770;2022-10-22T16:31:29;5.90;;;2.08;;
32613;SDS011;19031;51.400;6.770;2022-10-22T16:33:56;9.63;;;1.75;;
32613;SDS011;19031;51.400;6.770;2022-10-22T16:36:22;3.42;;;1.90;;
32613;SDS011;19031;51.400;6.770;2022-10-22T16:38:48;9.35;;;2.85;;
32613;SDS011;19031;51.400;6.770;2022-10-22T16:41:14;4.38;;;1.55;;
32613;SDS011;19031;51.400;6.770;2022-10-22T16:43:40;2.47;;;1.20;;
32613;SDS011;19031;51.400;6.770;2022-10-22T16:46:08;4.38;;;1.00;;
32613;SDS011;19031;51.400;6.770;2022-10-22T16:48:34;3.78;;;1.42;;
32613;SDS011;19031;51.400;6.770;2022-10-22T16:51:05;2.17;;;1.13;;
32613;SDS011;19031;51.400;6.770;2022-10-22T16:53:31;8.18;;;1.67;;
32613;SDS011;19031;51.400;6.770;2022-10-22T16:55:57;5.60;;;1.60;;